Time;durP1;ratioP1;P1;durP2;ratioP2;P2;SDS_P1;SDS_P2;PMS_P1;PMS_P2;Temp;Humidity;BMP_temperature;BMP_pressure;BME280_temperature;BME280_humidity;BME280_pressure;Samples;Min_cycle;Max_cycle;Signal;HPM_P1;HPM_P2
2021/08/20 00:00:45;;;;;;;4.85;4.2;;;;;;;16.93;100;95272.47;;;;
2021/08/20 00:01:45;;;;;;;4.85;4.2;;;;;;;16.93;100;95272.47;;;;
2021/08/20 00:02:46;;;;;;;4.85;4.2;;;;;;;16.93;100;95272.47;;;;
2021/08/20 00:03:46;;;;;;;4.85;4.2;;;;;;;16.93;100;95272.47;;;;
2021/08/20 00:04:47;;;;;;;4.85;4.2;;;;;;;16.93;100;95272.47;;;;
2021/08/20 00:05:47;;;;;;;4.85;4.2;;;;;;;16.93;100;95272.47;;;;
2021/08/20 00:06:48;;;;;;;5.65;4.45;;;;;;;16.9;100;95270.29;;;;
2021/08/20 00:07:48;;;;;;;5.65;4.45;;;;;;;16.9;100;95270.29;;;;
2021/08/20 00:08:49;;;;;;;5.65;4.45;;;;;;;16.9;100;95270.29;;;;
2021/08/20 00:09:49;;;;;;;5.65;4.45;;;;;;;16.9;100;95270.29;;;;
2021/08/20 00:10:51;;;;;;;5.65;4.45;;;;;;;16.9;100;95270.29;;;;
2021/08/20 00:11:51;;;;;;;5.65;4.45;;;;;;;16.9;100;95270.29;;;;
2021/08/20 00:12:52;;;;;;;5.65;4.45;;;;;;;16.9;100;95270.29;;;;
2021/08/20 00:13:52;;;;;;;5.65;4.45;;;;;;;16.9;100;95270.29;;;;
2021/08/20 00:14:55;;;;;;;5.65;4.45;;;;;;;16.9;100;95270.29;;;;
2021/08/20 00:15:55;;;;;;;5.65;4.45;;;;;;;16.9;100;95270.29;;;;
2021/08/20 00:16:56;;;;;;;5.65;4.45;;;;;;;16.9;100;95270.29;;;;
2021/08/20 00:17:56;;;;;;;4.8;4.05;;;;;;;16.76;100;95259.81;;;;
2021/08/20 00:18:57;;;;;;;4.8;4.05;;;;;;;16.76;100;95259.81;;;;
2021/08/20 00:19:58;;;;;;;4.8;4.05;;;;;;;16.76;100;95259.81;;;;
2021/08/20 00:20:58;;;;;;;4.8;4.05;;;;;;;16.76;100;95259.81;;;;
2021/08/20 00:21:58;;;;;;;4.8;4.05;;;;;;;16.76;100;95259.81;;;;
2021/08/20 00:22:59;;;;;;;4.8;4.05;;;;;;;16.76;100;95259.81;;;;
2021/08/20 00:24:00;;;;;;;4.8;4.05;;;;;;;16.76;100;95259.81;;;;
2021/08/20 00:25:00;;;;;;;4.8;4.05;;;;;;;16.76;100;95259.81;;;;
2021/08/20 00:26:01;;;;;;;4.8;4.05;;;;;;;16.76;100;95259.81;;;;
2021/08/20 00:27:01;;;;;;;4.8;4.05;;;;;;;16.76;100;95259.81;;;;
2021/08/20 00:28:03;;;;;;;4.75;4.349999;;;;;;;16.53;100;95258.48;;;;
2021/08/20 00:29:03;;;;;;;4.75;4.349999;;;;;;;16.53;100;95258.48;;;;
2021/08/20 00:30:07;;;;;;;4.75;4.349999;;;;;;;16.53;100;95258.48;;;;
2021/08/20 00:31:09;;;;;;;4.75;4.349999;;;;;;;16.53;100;95258.48;;;;
2021/08/20 00:32:10;;;;;;;4.75;4.349999;;;;;;;16.53;100;95258.48;;;;
2021/08/20 00:33:10;;;;;;;4.75;4.349999;;;;;;;16.53;100;95258.48;;;;
2021/08/20 00:34:11;;;;;;;4.75;4.349999;;;;;;;16.53;100;95258.48;;;;
2021/08/20 00:35:11;;;;;;;4.75;4.349999;;;;;;;16.53;100;95258.48;;;;
2021/08/20 00:36:12;;;;;;;4.75;4.349999;;;;;;;16.53;100;95258.48;;;;
2021/08/20 00:37:13;;;;;;;4.75;4.349999;;;;;;;16.53;100;95258.48;;;;
2021/08/20 00:38:13;;;;;;;4.75;4.349999;;;;;;;16.53;100;95258.48;;;;
2021/08/20 00:39:14;;;;;;;5.5;4.4;;;;;;;16.37;100;95253.53;;;;
2021/08/20 00:40:14;;;;;;;5.5;4.4;;;;;;;16.37;100;95253.53;;;;
2021/08/20 00:41:15;;;;;;;5.5;4.4;;;;;;;16.37;100;95253.53;;;;
2021/08/20 00:42:16;;;;;;;5.5;4.4;;;;;;;16.37;100;95253.53;;;;
2021/08/20 00:43:16;;;;;;;5.5;4.4;;;;;;;16.37;100;95253.53;;;;
2021/08/20 00:44:17;;;;;;;5.5;4.4;;;;;;;16.37;100;95253.53;;;;
2021/08/20 00:45:18;;;;;;;5.5;4.4;;;;;;;16.37;100;95253.53;;;;
2021/08/20 00:46:18;;;;;;;5.5;4.4;;;;;;;16.37;100;95253.53;;;;
2021/08/20 00:47:19;;;;;;;5.5;4.4;;;;;;;16.37;100;95253.53;;;;
2021/08/20 00:48:20;;;;;;;5.5;4.4;;;;;;;16.37;100;95253.53;;;;
2021/08/20 00:49:20;;;;;;;5;4.5;;;;;;;16.19;100;95254.63;;;;
2021/08/20 00:50:21;;;;;;;5;4.5;;;;;;;16.19;100;95254.63;;;;
2021/08/20 00:51:21;;;;;;;5;4.5;;;;;;;16.19;100;95254.63;;;;
2021/08/20 00:52:24;;;;;;;5;4.5;;;;;;;16.19;100;95254.63;;;;
2021/08/20 00:53:25;;;;;;;5;4.5;;;;;;;16.19;100;95254.63;;;;
2021/08/20 00:54:25;;;;;;;5;4.5;;;;;;;16.19;100;95254.63;;;;
2021/08/20 00:55:26;;;;;;;5;4.5;;;;;;;16.19;100;95254.63;;;;
2021/08/20 00:56:27;;;;;;;5;4.5;;;;;;;16.19;100;95254.63;;;;
2021/08/20 00:57:28;;;;;;;5;4.5;;;;;;;16.19;100;95254.63;;;;
2021/08/20 00:58:30;;;;;;;5;4.5;;;;;;;16.19;100;95254.63;;;;
2021/08/20 00:59:31;;;;;;;5;4.5;;;;;;;16.19;100;95254.63;;;;
2021/08/20 01:00:32;;;;;;;4.95;4.45;;;;;;;15.98;100;95248.74;;;;
2021/08/20 01:01:33;;;;;;;4.95;4.45;;;;;;;15.98;100;95248.74;;;;
2021/08/20 01:02:35;;;;;;;4.95;4.45;;;;;;;15.98;100;95248.74;;;;
2021/08/20 01:03:35;;;;;;;4.95;4.45;;;;;;;15.98;100;95248.74;;;;
2021/08/20 01:04:36;;;;;;;4.95;4.45;;;;;;;15.98;100;95248.74;;;;
2021/08/20 01:05:36;;;;;;;4.95;4.45;;;;;;;15.98;100;95248.74;;;;
2021/08/20 01:06:37;;;;;;;4.95;4.45;;;;;;;15.98;100;95248.74;;;;
2021/08/20 01:07:38;;;;;;;4.95;4.45;;;;;;;15.98;100;95248.74;;;;
2021/08/20 01:08:39;;;;;;;4.95;4.45;;;;;;;15.98;100;95248.74;;;;
2021/08/20 01:09:39;;;;;;;4.95;4.45;;;;;;;15.98;100;95248.74;;;;
2021/08/20 01:10:40;;;;;;;4.95;4.5;;;;;;;15.76;100;95245.01;;;;
2021/08/20 01:11:42;;;;;;;4.95;4.5;;;;;;;15.76;100;95245.01;;;;
2021/08/20 01:12:42;;;;;;;4.95;4.5;;;;;;;15.76;100;95245.01;;;;
2021/08/20 01:13:43;;;;;;;4.95;4.5;;;;;;;15.76;100;95245.01;;;;
2021/08/20 01:14:43;;;;;;;4.95;4.5;;;;;;;15.76;100;95245.01;;;;
2021/08/20 01:15:48;;;;;;;4.95;4.5;;;;;;;15.76;100;95245.01;;;;
2021/08/20 01:16:49;;;;;;;4.95;4.5;;;;;;;15.76;100;95245.01;;;;
2021/08/20 01:17:50;;;;;;;4.95;4.5;;;;;;;15.76;100;95245.01;;;;
2021/08/20 01:18:51;;;;;;;4.95;4.5;;;;;;;15.76;100;95245.01;;;;
2021/08/20 01:19:52;;;;;;;4.95;4.5;;;;;;;15.76;100;95245.01;;;;
2021/08/20 01:20:52;;;;;;;4.95;4.5;;;;;;;15.76;100;95245.01;;;;
2021/08/20 01:21:55;;;;;;;5.349999;4.849999;;;;;;;15.49;100;95234.33;;;;
2021/08/20 01:22:56;;;;;;;5.349999;4.849999;;;;;;;15.49;100;95234.33;;;;
2021/08/20 01:23:56;;;;;;;5.349999;4.849999;;;;;;;15.49;100;95234.33;;;;
2021/08/20 01:25:00;;;;;;;5.349999;4.849999;;;;;;;15.49;100;95234.33;;;;
2021/08/20 01:26:03;;;;;;;5.349999;4.849999;;;;;;;15.49;100;95234.33;;;;
2021/08/20 01:27:04;;;;;;;5.349999;4.849999;;;;;;;15.49;100;95234.33;;;;
2021/08/20 01:28:06;;;;;;;5.349999;4.849999;;;;;;;15.49;100;95234.33;;;;
2021/08/20 01:29:08;;;;;;;5.349999;4.849999;;;;;;;15.49;100;95234.33;;;;
2021/08/20 01:30:08;;;;;;;5.349999;4.849999;;;;;;;15.49;100;95234.33;;;;
2021/08/20 01:31:10;;;;;;;5.349999;4.849999;;;;;;;15.49;100;95234.33;;;;
2021/08/20 01:32:13;;;;;;;7;4.85;;;;;;;15.26;100;95222.1;;;;
2021/08/20 01:33:14;;;;;;;7;4.85;;;;;;;15.26;100;95222.1;;;;
2021/08/20 01:34:14;;;;;;;7;4.85;;;;;;;15.26;100;95222.1;;;;
2021/08/20 01:35:15;;;;;;;7;4.85;;;;;;;15.26;100;95222.1;;;;
2021/08/20 01:36:16;;;;;;;7;4.85;;;;;;;15.26;100;95222.1;;;;
2021/08/20 01:37:16;;;;;;;7;4.85;;;;;;;15.26;100;95222.1;;;;
2021/08/20 01:38:17;;;;;;;7;4.85;;;;;;;15.26;100;95222.1;;;;
2021/08/20 01:39:17;;;;;;;7;4.85;;;;;;;15.26;100;95222.1;;;;
2021/08/20 01:40:18;;;;;;;7;4.85;;;;;;;15.26;100;95222.1;;;;
2021/08/20 01:41:18;;;;;;;7;4.85;;;;;;;15.26;100;95222.1;;;;
2021/08/20 01:42:21;;;;;;;7;4.85;;;;;;;15.26;100;95222.1;;;;
2021/08/20 01:43:21;;;;;;;5.45;4.95;;;;;;;15.13;100;95225.72;;;;
2021/08/20 01:44:22;;;;;;;5.45;4.95;;;;;;;15.13;100;95225.72;;;;
2021/08/20 01:45:22;;;;;;;5.45;4.95;;;;;;;15.13;100;95225.72;;;;
2021/08/20 01:46:23;;;;;;;5.45;4.95;;;;;;;15.13;100;95225.72;;;;
2021/08/20 01:47:23;;;;;;;5.45;4.95;;;;;;;15.13;100;95225.72;;;;
2021/08/20 01:48:24;;;;;;;5.45;4.95;;;;;;;15.13;100;95225.72;;;;
2021/08/20 01:49:24;;;;;;;5.45;4.95;;;;;;;15.13;100;95225.72;;;;
2021/08/20 01:50:25;;;;;;;5.45;4.95;;;;;;;15.13;100;95225.72;;;;
2021/08/20 01:51:25;;;;;;;5.45;4.95;;;;;;;15.13;100;95225.72;;;;
2021/08/20 01:52:27;;;;;;;5.45;4.95;;;;;;;15.13;100;95225.72;;;;
2021/08/20 01:53:28;;;;;;;6.399999;4.45;;;;;;;15.03;100;95221.61;;;;
2021/08/20 01:54:28;;;;;;;6.399999;4.45;;;;;;;15.03;100;95221.61;;;;
2021/08/20 01:55:29;;;;;;;6.399999;4.45;;;;;;;15.03;100;95221.61;;;;
2021/08/20 01:56:29;;;;;;;6.399999;4.45;;;;;;;15.03;100;95221.61;;;;
2021/08/20 01:57:33;;;;;;;6.399999;4.45;;;;;;;15.03;100;95221.61;;;;
2021/08/20 01:58:34;;;;;;;6.399999;4.45;;;;;;;15.03;100;95221.61;;;;
2021/08/20 01:59:35;;;;;;;6.399999;4.45;;;;;;;15.03;100;95221.61;;;;
2021/08/20 02:00:36;;;;;;;6.399999;4.45;;;;;;;15.03;100;95221.61;;;;
2021/08/20 02:01:37;;;;;;;6.399999;4.45;;;;;;;15.03;100;95221.61;;;;
2021/08/20 02:02:37;;;;;;;6.399999;4.45;;;;;;;15.03;100;95221.61;;;;
2021/08/20 02:03:38;;;;;;;6.399999;4.45;;;;;;;15.03;100;95221.61;;;;
2021/08/20 02:04:38;;;;;;;6.399999;4.45;;;;;;;15.03;100;95221.61;;;;
2021/08/20 02:05:39;;;;;;;6.399999;4.45;;;;;;;15.03;100;95221.61;;;;
2021/08/20 02:06:39;;;;;;;6.399999;4.45;;;;;;;15.03;100;95221.61;;;;
2021/08/20 02:07:40;;;;;;;6.399999;4.45;;;;;;;15.03;100;95221.61;;;;
2021/08/20 02:08:41;;;;;;;6.399999;4.45;;;;;;;15.03;100;95221.61;;;;
2021/08/20 02:09:42;;;;;;;6.399999;4.45;;;;;;;15.03;100;95221.61;;;;
2021/08/20 02:10:42;;;;;;;6.399999;4.45;;;;;;;15.03;100;95221.61;;;;
2021/08/20 02:11:43;;;;;;;6.399999;4.45;;;;;;;15.03;100;95221.61;;;;
2021/08/20 02:12:43;;;;;;;6.399999;4.45;;;;;;;15.03;100;95221.61;;;;
2021/08/20 02:13:43;;;;;;;6.399999;4.45;;;;;;;15.03;100;95221.61;;;;
2021/08/20 02:14:44;;;;;;;5.6;4.55;;;;;;;15.17;100;95213.76;;;;
2021/08/20 02:15:45;;;;;;;5.6;4.55;;;;;;;15.17;100;95213.76;;;;
2021/08/20 02:16:45;;;;;;;5.6;4.55;;;;;;;15.17;100;95213.76;;;;
2021/08/20 02:17:46;;;;;;;5.6;4.55;;;;;;;15.17;100;95213.76;;;;
2021/08/20 02:18:46;;;;;;;5.6;4.55;;;;;;;15.17;100;95213.76;;;;
2021/08/20 02:19:47;;;;;;;5.6;4.55;;;;;;;15.17;100;95213.76;;;;
2021/08/20 02:20:47;;;;;;;5.6;4.55;;;;;;;15.17;100;95213.76;;;;
2021/08/20 02:21:48;;;;;;;5.6;4.55;;;;;;;15.17;100;95213.76;;;;
2021/08/20 02:22:49;;;;;;;5.6;4.55;;;;;;;15.17;100;95213.76;;;;
2021/08/20 02:23:49;;;;;;;5.6;4.55;;;;;;;15.17;100;95213.76;;;;
2021/08/20 02:24:54;;;;;;;5.6;4.55;;;;;;;15.17;100;95213.76;;;;
2021/08/20 02:25:54;;;;;;;6.95;4.55;;;;;;;15.11;100;95218.92;;;;
2021/08/20 02:26:55;;;;;;;6.95;4.55;;;;;;;15.11;100;95218.92;;;;
2021/08/20 02:27:55;;;;;;;6.95;4.55;;;;;;;15.11;100;95218.92;;;;
2021/08/20 02:28:56;;;;;;;6.95;4.55;;;;;;;15.11;100;95218.92;;;;
2021/08/20 02:29:56;;;;;;;6.95;4.55;;;;;;;15.11;100;95218.92;;;;
2021/08/20 02:30:57;;;;;;;6.95;4.55;;;;;;;15.11;100;95218.92;;;;
2021/08/20 02:31:58;;;;;;;6.95;4.55;;;;;;;15.11;100;95218.92;;;;
2021/08/20 02:32:58;;;;;;;6.95;4.55;;;;;;;15.11;100;95218.92;;;;
2021/08/20 02:33:59;;;;;;;6.95;4.55;;;;;;;15.11;100;95218.92;;;;
2021/08/20 02:35:00;;;;;;;6.95;4.55;;;;;;;15.11;100;95218.92;;;;
2021/08/20 02:36:02;;;;;;;6.400001;5.3;;;;;;;14.94;100;95214.21;;;;
2021/08/20 02:37:03;;;;;;;6.400001;5.3;;;;;;;14.94;100;95214.21;;;;
2021/08/20 02:38:04;;;;;;;6.400001;5.3;;;;;;;14.94;100;95214.21;;;;
2021/08/20 02:39:05;;;;;;;6.400001;5.3;;;;;;;14.94;100;95214.21;;;;
2021/08/20 02:40:05;;;;;;;6.400001;5.3;;;;;;;14.94;100;95214.21;;;;
2021/08/20 02:41:07;;;;;;;6.400001;5.3;;;;;;;14.94;100;95214.21;;;;
2021/08/20 02:42:08;;;;;;;6.400001;5.3;;;;;;;14.94;100;95214.21;;;;
2021/08/20 02:43:08;;;;;;;6.400001;5.3;;;;;;;14.94;100;95214.21;;;;
2021/08/20 02:44:09;;;;;;;6.400001;5.3;;;;;;;14.94;100;95214.21;;;;
2021/08/20 02:45:09;;;;;;;6.400001;5.3;;;;;;;14.94;100;95214.21;;;;
2021/08/20 02:46:11;;;;;;;6.400001;5.3;;;;;;;14.94;100;95214.21;;;;
2021/08/20 02:47:11;;;;;;;6.5;5.05;;;;;;;14.74;100;95220.89;;;;
2021/08/20 02:48:12;;;;;;;6.5;5.05;;;;;;;14.74;100;95220.89;;;;
2021/08/20 02:49:12;;;;;;;6.5;5.05;;;;;;;14.74;100;95220.89;;;;
2021/08/20 02:50:13;;;;;;;6.5;5.05;;;;;;;14.74;100;95220.89;;;;
2021/08/20 02:51:14;;;;;;;6.5;5.05;;;;;;;14.74;100;95220.89;;;;
2021/08/20 02:52:15;;;;;;;6.5;5.05;;;;;;;14.74;100;95220.89;;;;
2021/08/20 02:53:15;;;;;;;6.5;5.05;;;;;;;14.74;100;95220.89;;;;
2021/08/20 02:54:16;;;;;;;6.5;5.05;;;;;;;14.74;100;95220.89;;;;
2021/08/20 02:55:17;;;;;;;6.5;5.05;;;;;;;14.74;100;95220.89;;;;
2021/08/20 02:56:17;;;;;;;6.5;5.05;;;;;;;14.74;100;95220.89;;;;
2021/08/20 02:57:18;;;;;;;6.5;5.05;;;;;;;14.74;100;95220.89;;;;
2021/08/20 02:58:19;;;;;;;6.5;5.05;;;;;;;14.74;100;95220.89;;;;
2021/08/20 02:59:19;;;;;;;6.5;5.05;;;;;;;14.74;100;95220.89;;;;
2021/08/20 03:00:20;;;;;;;6.5;5.05;;;;;;;14.74;100;95220.89;;;;
2021/08/20 03:01:20;;;;;;;6.5;5.05;;;;;;;14.74;100;95220.89;;;;
2021/08/20 03:02:21;;;;;;;6.5;5.05;;;;;;;14.74;100;95220.89;;;;
2021/08/20 03:03:22;;;;;;;6.5;5.05;;;;;;;14.74;100;95220.89;;;;
2021/08/20 03:04:22;;;;;;;6.5;5.05;;;;;;;14.74;100;95220.89;;;;
2021/08/20 03:05:23;;;;;;;6.5;5.05;;;;;;;14.74;100;95220.89;;;;
2021/08/20 03:06:23;;;;;;;6.5;5.05;;;;;;;14.74;100;95220.89;;;;
2021/08/20 03:07:24;;;;;;;6.5;5.05;;;;;;;14.74;100;95220.89;;;;
2021/08/20 03:08:24;;;;;;;6.249999;5.65;;;;;;;14.27;100;95210.8;;;;
2021/08/20 03:09:25;;;;;;;6.249999;5.65;;;;;;;14.27;100;95210.8;;;;
2021/08/20 03:10:25;;;;;;;6.249999;5.65;;;;;;;14.27;100;95210.8;;;;
2021/08/20 03:11:26;;;;;;;6.249999;5.65;;;;;;;14.27;100;95210.8;;;;
2021/08/20 03:12:27;;;;;;;6.249999;5.65;;;;;;;14.27;100;95210.8;;;;
2021/08/20 03:13:27;;;;;;;6.249999;5.65;;;;;;;14.27;100;95210.8;;;;
2021/08/20 03:14:28;;;;;;;6.249999;5.65;;;;;;;14.27;100;95210.8;;;;
2021/08/20 03:15:28;;;;;;;6.249999;5.65;;;;;;;14.27;100;95210.8;;;;
2021/08/20 03:16:29;;;;;;;6.249999;5.65;;;;;;;14.27;100;95210.8;;;;
2021/08/20 03:17:29;;;;;;;6.249999;5.65;;;;;;;14.27;100;95210.8;;;;
2021/08/20 03:18:30;;;;;;;6.249999;5.65;;;;;;;14.27;100;95210.8;;;;
2021/08/20 03:19:31;;;;;;;7.2;6.25;;;;;;;14.26;100;95216.89;;;;
2021/08/20 03:20:31;;;;;;;7.2;6.25;;;;;;;14.26;100;95216.89;;;;
2021/08/20 03:21:32;;;;;;;7.2;6.25;;;;;;;14.26;100;95216.89;;;;
2021/08/20 03:22:32;;;;;;;7.2;6.25;;;;;;;14.26;100;95216.89;;;;
2021/08/20 03:23:33;;;;;;;7.2;6.25;;;;;;;14.26;100;95216.89;;;;
2021/08/20 03:24:33;;;;;;;7.2;6.25;;;;;;;14.26;100;95216.89;;;;
2021/08/20 03:25:34;;;;;;;7.2;6.25;;;;;;;14.26;100;95216.89;;;;
2021/08/20 03:26:34;;;;;;;7.2;6.25;;;;;;;14.26;100;95216.89;;;;
2021/08/20 03:27:35;;;;;;;7.2;6.25;;;;;;;14.26;100;95216.89;;;;
2021/08/20 03:28:36;;;;;;;7.2;6.25;;;;;;;14.26;100;95216.89;;;;
2021/08/20 03:29:36;;;;;;;7.249999;5.7;;;;;;;14.31;100;95215.17;;;;
2021/08/20 03:30:37;;;;;;;7.249999;5.7;;;;;;;14.31;100;95215.17;;;;
2021/08/20 03:31:37;;;;;;;7.249999;5.7;;;;;;;14.31;100;95215.17;;;;
2021/08/20 03:32:38;;;;;;;7.249999;5.7;;;;;;;14.31;100;95215.17;;;;
2021/08/20 03:33:38;;;;;;;7.249999;5.7;;;;;;;14.31;100;95215.17;;;;
2021/08/20 03:34:39;;;;;;;7.249999;5.7;;;;;;;14.31;100;95215.17;;;;
2021/08/20 03:35:39;;;;;;;7.249999;5.7;;;;;;;14.31;100;95215.17;;;;
2021/08/20 03:36:40;;;;;;;7.249999;5.7;;;;;;;14.31;100;95215.17;;;;
2021/08/20 03:37:40;;;;;;;7.249999;5.7;;;;;;;14.31;100;95215.17;;;;
2021/08/20 03:38:41;;;;;;;7.249999;5.7;;;;;;;14.31;100;95215.17;;;;
2021/08/20 03:39:41;;;;;;;7.249999;5.7;;;;;;;14.31;100;95215.17;;;;
2021/08/20 03:40:42;;;;;;;5.95;5.35;;;;;;;14.22;100;95217.13;;;;
2021/08/20 03:41:42;;;;;;;5.95;5.35;;;;;;;14.22;100;95217.13;;;;
2021/08/20 03:42:43;;;;;;;5.95;5.35;;;;;;;14.22;100;95217.13;;;;
2021/08/20 03:43:43;;;;;;;5.95;5.35;;;;;;;14.22;100;95217.13;;;;
2021/08/20 03:44:44;;;;;;;5.95;5.35;;;;;;;14.22;100;95217.13;;;;
2021/08/20 03:45:45;;;;;;;5.95;5.35;;;;;;;14.22;100;95217.13;;;;
2021/08/20 03:46:45;;;;;;;5.95;5.35;;;;;;;14.22;100;95217.13;;;;
2021/08/20 03:47:47;;;;;;;5.95;5.35;;;;;;;14.22;100;95217.13;;;;
2021/08/20 03:48:49;;;;;;;5.95;5.35;;;;;;;14.22;100;95217.13;;;;
2021/08/20 03:49:50;;;;;;;5.95;5.35;;;;;;;14.22;100;95217.13;;;;
2021/08/20 03:50:51;;;;;;;7.050001;5.85;;;;;;;14.1;100;95220.56;;;;
2021/08/20 03:51:51;;;;;;;7.050001;5.85;;;;;;;14.1;100;95220.56;;;;
2021/08/20 03:52:52;;;;;;;7.050001;5.85;;;;;;;14.1;100;95220.56;;;;
2021/08/20 03:53:52;;;;;;;7.050001;5.85;;;;;;;14.1;100;95220.56;;;;
2021/08/20 03:54:53;;;;;;;7.050001;5.85;;;;;;;14.1;100;95220.56;;;;
2021/08/20 03:55:53;;;;;;;7.050001;5.85;;;;;;;14.1;100;95220.56;;;;
2021/08/20 03:56:54;;;;;;;7.050001;5.85;;;;;;;14.1;100;95220.56;;;;
2021/08/20 03:57:54;;;;;;;7.050001;5.85;;;;;;;14.1;100;95220.56;;;;
2021/08/20 03:58:58;;;;;;;7.050001;5.85;;;;;;;14.1;100;95220.56;;;;
2021/08/20 03:59:58;;;;;;;7.050001;5.85;;;;;;;14.1;100;95220.56;;;;
2021/08/20 04:00:59;;;;;;;7.050001;5.85;;;;;;;14.1;100;95220.56;;;;
2021/08/20 04:01:59;;;;;;;5.9;5.349999;;;;;;;14.03;100;95227.12;;;;
2021/08/20 04:03:02;;;;;;;5.9;5.349999;;;;;;;14.03;100;95227.12;;;;
2021/08/20 04:04:02;;;;;;;5.9;5.349999;;;;;;;14.03;100;95227.12;;;;
2021/08/20 04:05:03;;;;;;;5.9;5.349999;;;;;;;14.03;100;95227.12;;;;
2021/08/20 04:06:04;;;;;;;5.9;5.349999;;;;;;;14.03;100;95227.12;;;;
2021/08/20 04:07:08;;;;;;;5.9;5.349999;;;;;;;14.03;100;95227.12;;;;
2021/08/20 04:08:08;;;;;;;5.9;5.349999;;;;;;;14.03;100;95227.12;;;;
2021/08/20 04:09:09;;;;;;;5.9;5.349999;;;;;;;14.03;100;95227.12;;;;
2021/08/20 04:10:09;;;;;;;5.9;5.349999;;;;;;;14.03;100;95227.12;;;;
2021/08/20 04:11:10;;;;;;;5.9;5.349999;;;;;;;14.03;100;95227.12;;;;
2021/08/20 04:12:12;;;;;;;7;6.3;;;;;;;14.09;100;95244.7;;;;
2021/08/20 04:13:12;;;;;;;7;6.3;;;;;;;14.09;100;95244.7;;;;
2021/08/20 04:14:13;;;;;;;7;6.3;;;;;;;14.09;100;95244.7;;;;
2021/08/20 04:15:14;;;;;;;7;6.3;;;;;;;14.09;100;95244.7;;;;
2021/08/20 04:16:14;;;;;;;7;6.3;;;;;;;14.09;100;95244.7;;;;
2021/08/20 04:17:15;;;;;;;7;6.3;;;;;;;14.09;100;95244.7;;;;
2021/08/20 04:18:15;;;;;;;7;6.3;;;;;;;14.09;100;95244.7;;;;
2021/08/20 04:19:16;;;;;;;7;6.3;;;;;;;14.09;100;95244.7;;;;
2021/08/20 04:20:16;;;;;;;7;6.3;;;;;;;14.09;100;95244.7;;;;
2021/08/20 04:21:19;;;;;;;7;6.3;;;;;;;14.09;100;95244.7;;;;
2021/08/20 04:22:19;;;;;;;7;6.3;;;;;;;14.09;100;95244.7;;;;
2021/08/20 04:23:20;;;;;;;8.299999;7.299999;;;;;;;14.27;100;95248.42;;;;
2021/08/20 04:24:20;;;;;;;8.299999;7.299999;;;;;;;14.27;100;95248.42;;;;
2021/08/20 04:25:21;;;;;;;8.299999;7.299999;;;;;;;14.27;100;95248.42;;;;
2021/08/20 04:26:22;;;;;;;8.299999;7.299999;;;;;;;14.27;100;95248.42;;;;
2021/08/20 04:27:23;;;;;;;8.299999;7.299999;;;;;;;14.27;100;95248.42;;;;
2021/08/20 04:28:23;;;;;;;8.299999;7.299999;;;;;;;14.27;100;95248.42;;;;
2021/08/20 04:29:24;;;;;;;8.299999;7.299999;;;;;;;14.27;100;95248.42;;;;
2021/08/20 04:30:24;;;;;;;8.299999;7.299999;;;;;;;14.27;100;95248.42;;;;
2021/08/20 04:31:25;;;;;;;8.299999;7.299999;;;;;;;14.27;100;95248.42;;;;
2021/08/20 04:32:25;;;;;;;8.299999;7.299999;;;;;;;14.27;100;95248.42;;;;
2021/08/20 04:33:26;;;;;;;6.7;6;;;;;;;14.51;100;95253.36;;;;
2021/08/20 04:34:26;;;;;;;6.7;6;;;;;;;14.51;100;95253.36;;;;
2021/08/20 04:35:27;;;;;;;6.7;6;;;;;;;14.51;100;95253.36;;;;
2021/08/20 04:36:28;;;;;;;6.7;6;;;;;;;14.51;100;95253.36;;;;
2021/08/20 04:37:28;;;;;;;6.7;6;;;;;;;14.51;100;95253.36;;;;
2021/08/20 04:38:28;;;;;;;6.7;6;;;;;;;14.51;100;95253.36;;;;
2021/08/20 04:39:29;;;;;;;6.7;6;;;;;;;14.51;100;95253.36;;;;
2021/08/20 04:40:29;;;;;;;6.7;6;;;;;;;14.51;100;95253.36;;;;
2021/08/20 04:41:30;;;;;;;6.7;6;;;;;;;14.51;100;95253.36;;;;
2021/08/20 04:42:30;;;;;;;6.7;6;;;;;;;14.51;100;95253.36;;;;
2021/08/20 04:43:31;;;;;;;6.7;6;;;;;;;14.51;100;95253.36;;;;
2021/08/20 04:44:31;;;;;;;6.5;5.8;;;;;;;14.7;100;95262.31;;;;
2021/08/20 04:45:32;;;;;;;6.5;5.8;;;;;;;14.7;100;95262.31;;;;
2021/08/20 04:46:32;;;;;;;6.5;5.8;;;;;;;14.7;100;95262.31;;;;
2021/08/20 04:47:33;;;;;;;6.5;5.8;;;;;;;14.7;100;95262.31;;;;
2021/08/20 04:48:34;;;;;;;6.5;5.8;;;;;;;14.7;100;95262.31;;;;
2021/08/20 04:49:34;;;;;;;6.5;5.8;;;;;;;14.7;100;95262.31;;;;
2021/08/20 04:50:35;;;;;;;6.5;5.8;;;;;;;14.7;100;95262.31;;;;
2021/08/20 04:51:35;;;;;;;6.5;5.8;;;;;;;14.7;100;95262.31;;;;
2021/08/20 04:52:36;;;;;;;6.5;5.8;;;;;;;14.7;100;95262.31;;;;
2021/08/20 04:53:37;;;;;;;6.5;5.8;;;;;;;14.7;100;95262.31;;;;
2021/08/20 04:54:37;;;;;;;5.8;5.3;;;;;;;14.86;100;95261.74;;;;
2021/08/20 04:55:37;;;;;;;5.8;5.3;;;;;;;14.86;100;95261.74;;;;
2021/08/20 04:56:39;;;;;;;5.8;5.3;;;;;;;14.86;100;95261.74;;;;
2021/08/20 04:57:40;;;;;;;5.8;5.3;;;;;;;14.86;100;95261.74;;;;
2021/08/20 04:58:41;;;;;;;5.8;5.3;;;;;;;14.86;100;95261.74;;;;
2021/08/20 04:59:41;;;;;;;5.8;5.3;;;;;;;14.86;100;95261.74;;;;
2021/08/20 05:00:42;;;;;;;5.8;5.3;;;;;;;14.86;100;95261.74;;;;
2021/08/20 05:01:45;;;;;;;5.8;5.3;;;;;;;14.86;100;95261.74;;;;
2021/08/20 05:02:46;;;;;;;5.8;5.3;;;;;;;14.86;100;95261.74;;;;
2021/08/20 05:03:46;;;;;;;5.8;5.3;;;;;;;14.86;100;95261.74;;;;
2021/08/20 05:04:48;;;;;;;5.8;5.3;;;;;;;14.86;100;95261.74;;;;
2021/08/20 05:05:48;;;;;;;7.45;5.749999;;;;;;;15.06;100;95277.23;;;;
2021/08/20 05:06:49;;;;;;;7.45;5.749999;;;;;;;15.06;100;95277.23;;;;
2021/08/20 05:07:50;;;;;;;7.45;5.749999;;;;;;;15.06;100;95277.23;;;;
2021/08/20 05:08:50;;;;;;;7.45;5.749999;;;;;;;15.06;100;95277.23;;;;
2021/08/20 05:09:51;;;;;;;7.45;5.749999;;;;;;;15.06;100;95277.23;;;;
2021/08/20 05:10:51;;;;;;;7.45;5.749999;;;;;;;15.06;100;95277.23;;;;
2021/08/20 05:11:52;;;;;;;7.45;5.749999;;;;;;;15.06;100;95277.23;;;;
2021/08/20 05:12:54;;;;;;;7.45;5.749999;;;;;;;15.06;100;95277.23;;;;
2021/08/20 05:13:55;;;;;;;7.45;5.749999;;;;;;;15.06;100;95277.23;;;;
2021/08/20 05:14:55;;;;;;;7.45;5.749999;;;;;;;15.06;100;95277.23;;;;
2021/08/20 05:15:56;;;;;;;7.45;5.749999;;;;;;;15.06;100;95277.23;;;;
2021/08/20 05:16:56;;;;;;;6.5;5.75;;;;;;;15.38;100;95283.51;;;;
2021/08/20 05:17:57;;;;;;;6.5;5.75;;;;;;;15.38;100;95283.51;;;;
2021/08/20 05:18:58;;;;;;;6.5;5.75;;;;;;;15.38;100;95283.51;;;;
2021/08/20 05:19:58;;;;;;;6.5;5.75;;;;;;;15.38;100;95283.51;;;;
2021/08/20 05:20:59;;;;;;;6.5;5.75;;;;;;;15.38;100;95283.51;;;;
2021/08/20 05:22:00;;;;;;;6.5;5.75;;;;;;;15.38;100;95283.51;;;;
2021/08/20 05:23:00;;;;;;;6.5;5.75;;;;;;;15.38;100;95283.51;;;;
2021/08/20 05:24:01;;;;;;;6.5;5.75;;;;;;;15.38;100;95283.51;;;;
2021/08/20 05:25:01;;;;;;;6.5;5.75;;;;;;;15.38;100;95283.51;;;;
2021/08/20 05:26:02;;;;;;;6.5;5.75;;;;;;;15.38;100;95283.51;;;;
2021/08/20 05:27:02;;;;;;;6.5;5.199999;;;;;;;15.68;100;95304.08;;;;
2021/08/20 05:28:03;;;;;;;6.5;5.199999;;;;;;;15.68;100;95304.08;;;;
2021/08/20 05:29:05;;;;;;;6.5;5.199999;;;;;;;15.68;100;95304.08;;;;
2021/08/20 05:30:05;;;;;;;6.5;5.199999;;;;;;;15.68;100;95304.08;;;;
2021/08/20 05:31:06;;;;;;;6.5;5.199999;;;;;;;15.68;100;95304.08;;;;
2021/08/20 05:32:07;;;;;;;6.5;5.199999;;;;;;;15.68;100;95304.08;;;;
2021/08/20 05:33:07;;;;;;;6.5;5.199999;;;;;;;15.68;100;95304.08;;;;
2021/08/20 05:34:08;;;;;;;6.5;5.199999;;;;;;;15.68;100;95304.08;;;;
2021/08/20 05:35:08;;;;;;;6.5;5.199999;;;;;;;15.68;100;95304.08;;;;
2021/08/20 05:36:11;;;;;;;6.5;5.199999;;;;;;;15.68;100;95304.08;;;;
2021/08/20 05:37:12;;;;;;;6.5;5.199999;;;;;;;15.68;100;95304.08;;;;
2021/08/20 05:38:12;;;;;;;6.65;5.9;;;;;;;15.99;100;95308.5;;;;
2021/08/20 05:39:13;;;;;;;6.65;5.9;;;;;;;15.99;100;95308.5;;;;
2021/08/20 05:40:14;;;;;;;6.65;5.9;;;;;;;15.99;100;95308.5;;;;
2021/08/20 05:41:15;;;;;;;6.65;5.9;;;;;;;15.99;100;95308.5;;;;
2021/08/20 05:42:16;;;;;;;6.65;5.9;;;;;;;15.99;100;95308.5;;;;
2021/08/20 05:43:16;;;;;;;6.65;5.9;;;;;;;15.99;100;95308.5;;;;
2021/08/20 05:44:17;;;;;;;6.65;5.9;;;;;;;15.99;100;95308.5;;;;
2021/08/20 05:45:17;;;;;;;6.65;5.9;;;;;;;15.99;100;95308.5;;;;
2021/08/20 05:46:18;;;;;;;6.65;5.9;;;;;;;15.99;100;95308.5;;;;
2021/08/20 05:47:18;;;;;;;6.65;5.9;;;;;;;15.99;100;95308.5;;;;
2021/08/20 05:48:19;;;;;;;5.899999;4.550001;;;;;;;16.38;100;95312.53;;;;
2021/08/20 05:49:19;;;;;;;5.899999;4.550001;;;;;;;16.38;100;95312.53;;;;
2021/08/20 05:50:20;;;;;;;5.899999;4.550001;;;;;;;16.38;100;95312.53;;;;
2021/08/20 05:51:21;;;;;;;5.899999;4.550001;;;;;;;16.38;100;95312.53;;;;
2021/08/20 05:52:21;;;;;;;5.899999;4.550001;;;;;;;16.38;100;95312.53;;;;
2021/08/20 05:53:21;;;;;;;5.899999;4.550001;;;;;;;16.38;100;95312.53;;;;
2021/08/20 05:54:22;;;;;;;5.899999;4.550001;;;;;;;16.38;100;95312.53;;;;
2021/08/20 05:55:25;;;;;;;5.899999;4.550001;;;;;;;16.38;100;95312.53;;;;
2021/08/20 05:56:25;;;;;;;5.899999;4.550001;;;;;;;16.38;100;95312.53;;;;
2021/08/20 05:57:26;;;;;;;5.899999;4.550001;;;;;;;16.38;100;95312.53;;;;
2021/08/20 05:58:26;;;;;;;5.899999;4.550001;;;;;;;16.38;100;95312.53;;;;
2021/08/20 05:59:27;;;;;;;5.950001;5.349999;;;;;;;16.84;100;95313.25;;;;
2021/08/20 06:00:27;;;;;;;5.950001;5.349999;;;;;;;16.84;100;95313.25;;;;
2021/08/20 06:01:29;;;;;;;5.950001;5.349999;;;;;;;16.84;100;95313.25;;;;
2021/08/20 06:02:30;;;;;;;5.950001;5.349999;;;;;;;16.84;100;95313.25;;;;
2021/08/20 06:03:30;;;;;;;5.950001;5.349999;;;;;;;16.84;100;95313.25;;;;
2021/08/20 06:04:30;;;;;;;5.950001;5.349999;;;;;;;16.84;100;95313.25;;;;
2021/08/20 06:05:31;;;;;;;5.950001;5.349999;;;;;;;16.84;100;95313.25;;;;